Terminal Aerodrome Forecast
Issued by NWS

Home | Current Version | Previous Version | Text Only | Print | Product List | Glossary On
Versions: 1 2 3 4 5 6 7 8 9 10 11 12 13 14 15 16 17 18 19 20
000
FTUS43 KLSX 270700 AAA
TAFCPS
TAF AMD
KCPS 270725Z 2707/2806 VRB03KT P6SM BKN250
      TEMPO 2709/2713 4SM BR
     FM271800 01006KT P6SM SCT040 BKN250
     FM280000 VRB04KT P6SM SCT050 BKN120=

USA.gov is the U.S. government's official web portal to all federal, state and local government web resources and services.